createdAt,value
2017-08-16T00:00:26.875Z,0
2017-08-16T00:01:26.586Z,0
2017-08-16T00:02:26.609Z,0
2017-08-16T00:03:26.903Z,0
2017-08-16T00:04:26.908Z,0
2017-08-16T00:05:26.625Z,0
2017-08-16T00:06:26.898Z,0
2017-08-16T00:07:26.923Z,0
2017-08-16T00:08:26.302Z,0
2017-08-16T00:09:26.607Z,0
2017-08-16T00:10:26.939Z,0
2017-08-16T00:11:26.643Z,0
2017-08-16T00:12:26.621Z,0
2017-08-16T00:13:26.937Z,0
2017-08-16T00:14:26.675Z,0
2017-08-16T00:15:26.644Z,0
2017-08-16T00:16:26.627Z,0
2017-08-16T00:17:26.335Z,0
2017-08-16T00:18:26.946Z,0
2017-08-16T00:19:26.345Z,0
2017-08-16T00:20:26.636Z,0
2017-08-16T00:21:26.982Z,0
2017-08-16T00:22:26.715Z,0
2017-08-16T00:23:26.961Z,0
2017-08-16T00:24:26.345Z,0
2017-08-16T00:25:26.653Z,0
2017-08-16T00:26:26.642Z,0
2017-08-16T00:27:26.667Z,0
2017-08-16T00:28:26.970Z,0
2017-08-16T00:29:26.681Z,0
2017-08-16T00:30:26.694Z,0
2017-08-16T00:31:26.980Z,0
2017-08-16T00:32:26.681Z,0
2017-08-16T00:33:26.680Z,0
2017-08-16T00:34:26.988Z,0
2017-08-16T00:35:26.986Z,0
2017-08-16T00:36:27.020Z,0
2017-08-16T00:37:26.708Z,0
2017-08-16T00:38:26.991Z,0
2017-08-16T00:39:27.005Z,0
2017-08-16T00:40:27.031Z,0
2017-08-16T00:41:26.112Z,0
2017-08-16T00:42:26.697Z,0
2017-08-16T00:43:27.043Z,0
2017-08-16T00:44:26.730Z,0
2017-08-16T00:45:28.320Z,0
2017-08-16T00:46:27.026Z,0
2017-08-16T00:47:26.760Z,0
2017-08-16T00:48:26.769Z,0
2017-08-16T00:49:26.783Z,0
2017-08-16T00:50:27.029Z,0
2017-08-16T00:51:27.034Z,0
2017-08-16T00:52:26.757Z,0
2017-08-16T00:53:27.064Z,0
2017-08-16T00:54:27.047Z,0
2017-08-16T00:55:26.456Z,0
2017-08-16T00:56:27.054Z,0
2017-08-16T00:57:27.039Z,0
2017-08-16T00:58:27.078Z,0
2017-08-16T00:59:26.767Z,0
2017-08-16T01:00:27.069Z,0
2017-08-16T01:01:27.077Z,0
2017-08-16T01:02:26.777Z,0
2017-08-16T01:03:27.060Z,0
2017-08-16T01:04:26.771Z,0
2017-08-16T01:05:26.775Z,0
2017-08-16T01:06:27.074Z,0
2017-08-16T01:07:26.781Z,0
2017-08-16T01:08:27.087Z,0
2017-08-16T01:09:27.093Z,0
2017-08-16T01:10:26.789Z,0
2017-08-16T01:11:26.800Z,0
2017-08-16T01:12:27.099Z,0
2017-08-16T01:13:27.100Z,0
2017-08-16T01:14:27.096Z,0
2017-08-16T01:15:28.657Z,0
2017-08-16T01:16:26.818Z,0
2017-08-16T01:17:26.793Z,0
2017-08-16T01:18:26.803Z,0
2017-08-16T01:19:27.110Z,0
2017-08-16T01:20:27.118Z,0
2017-08-16T01:21:27.141Z,0
2017-08-16T01:22:27.130Z,0
2017-08-16T01:23:27.130Z,0
2017-08-16T01:24:27.110Z,0
2017-08-16T01:25:27.132Z,0
2017-08-16T01:26:27.136Z,0
2017-08-16T01:27:27.130Z,0
2017-08-16T01:28:26.828Z,0
2017-08-16T01:29:26.833Z,0
2017-08-16T01:30:27.949Z,0
2017-08-16T01:31:27.160Z,0
2017-08-16T01:32:26.550Z,0
2017-08-16T01:33:27.146Z,0
2017-08-16T01:34:26.880Z,0
2017-08-16T01:35:27.146Z,0
2017-08-16T01:36:27.143Z,0
2017-08-16T01:37:27.163Z,0
2017-08-16T01:38:27.175Z,0
2017-08-16T01:39:27.161Z,0
2017-08-16T01:40:26.584Z,0
2017-08-16T01:41:27.176Z,0
2017-08-16T01:42:27.164Z,0
2017-08-16T01:43:27.194Z,0
2017-08-16T01:44:27.179Z,0
2017-08-16T01:45:27.446Z,0
2017-08-16T01:46:27.205Z,0
2017-08-16T01:47:27.190Z,0
2017-08-16T01:48:26.878Z,0
2017-08-16T01:49:26.892Z,0
2017-08-16T01:50:27.245Z,0
2017-08-16T01:51:27.177Z,0
2017-08-16T01:52:27.201Z,0
2017-08-16T01:53:27.199Z,0
2017-08-16T01:54:27.197Z,0
2017-08-16T01:55:26.884Z,0
2017-08-16T01:56:27.191Z,0
2017-08-16T01:57:27.194Z,0
2017-08-16T01:58:27.206Z,0
2017-08-16T01:59:26.939Z,0
2017-08-16T02:00:27.252Z,0
2017-08-16T02:01:26.916Z,0
2017-08-16T02:02:27.201Z,0
2017-08-16T02:03:27.214Z,0
2017-08-16T02:04:26.923Z,0
2017-08-16T02:05:27.216Z,0
2017-08-16T02:06:27.228Z,0
2017-08-16T02:07:27.227Z,0
2017-08-16T02:08:26.913Z,0
2017-08-16T02:09:27.216Z,0
2017-08-16T02:10:26.930Z,0
2017-08-16T02:11:27.229Z,0
2017-08-16T02:12:27.228Z,0
2017-08-16T02:13:26.918Z,0
2017-08-16T02:14:27.243Z,0
2017-08-16T02:15:28.932Z,0
2017-08-16T02:16:27.245Z,0
2017-08-16T02:17:27.232Z,0
2017-08-16T02:18:27.253Z,0
2017-08-16T02:19:27.246Z,0
2017-08-16T02:20:27.244Z,0
2017-08-16T02:21:26.943Z,0
2017-08-16T02:22:26.644Z,0
2017-08-16T02:23:27.243Z,0
2017-08-16T02:24:27.237Z,0
2017-08-16T02:25:27.241Z,0
2017-08-16T02:26:26.953Z,0
2017-08-16T02:27:27.246Z,0
2017-08-16T02:28:26.938Z,0
2017-08-16T02:29:26.959Z,0
2017-08-16T02:30:27.252Z,0
2017-08-16T02:31:27.257Z,0
2017-08-16T02:32:27.279Z,0
2017-08-16T02:33:27.258Z,0
2017-08-16T02:34:27.262Z,0
2017-08-16T02:35:27.265Z,0
2017-08-16T02:36:26.968Z,0
2017-08-16T02:37:27.270Z,0
2017-08-16T02:38:27.262Z,0
2017-08-16T02:39:27.259Z,0
2017-08-16T02:40:26.981Z,0
2017-08-16T02:41:26.974Z,0
2017-08-16T02:42:27.271Z,0
2017-08-16T02:43:27.273Z,0
2017-08-16T02:44:27.297Z,0
2017-08-16T02:45:27.279Z,0
2017-08-16T02:46:27.385Z,0
2017-08-16T02:47:26.977Z,0
2017-08-16T02:48:27.286Z,0
2017-08-16T02:49:27.302Z,0
2017-08-16T02:50:27.275Z,0
2017-08-16T02:51:27.292Z,0
2017-08-16T02:52:27.281Z,0
2017-08-16T02:53:27.282Z,0
2017-08-16T02:54:27.302Z,0
2017-08-16T02:55:27.303Z,0
2017-08-16T02:56:26.982Z,0
2017-08-16T02:57:26.996Z,0
2017-08-16T02:58:26.994Z,0
2017-08-16T02:59:27.007Z,0
2017-08-16T03:00:27.292Z,0
2017-08-16T03:01:27.055Z,0
2017-08-16T03:02:27.292Z,0
2017-08-16T03:03:26.719Z,0
2017-08-16T03:04:26.690Z,0
2017-08-16T03:05:27.008Z,0
2017-08-16T03:06:27.009Z,0
2017-08-16T03:07:27.011Z,0
2017-08-16T03:08:27.004Z,0
2017-08-16T03:09:27.326Z,0
2017-08-16T03:10:27.011Z,0
2017-08-16T03:11:27.012Z,0
2017-08-16T03:12:27.012Z,0
2017-08-16T03:13:27.021Z,0
2017-08-16T03:14:27.016Z,0
2017-08-16T03:15:27.320Z,0
2017-08-16T03:16:29.473Z,0
2017-08-16T03:17:27.330Z,0
2017-08-16T03:18:27.030Z,0
2017-08-16T03:19:27.322Z,0
2017-08-16T03:20:27.333Z,0
2017-08-16T03:21:26.737Z,0
2017-08-16T03:22:27.332Z,0
2017-08-16T03:23:27.338Z,0
2017-08-16T03:24:26.739Z,0
2017-08-16T03:25:27.359Z,0
2017-08-16T03:26:26.739Z,0
2017-08-16T03:27:27.061Z,0
2017-08-16T03:28:27.055Z,0
2017-08-16T03:29:27.361Z,0
2017-08-16T03:30:27.367Z,0
2017-08-16T03:31:27.606Z,0
2017-08-16T03:32:27.063Z,0
2017-08-16T03:33:27.361Z,0
2017-08-16T03:34:27.063Z,0
2017-08-16T03:35:27.363Z,0
2017-08-16T03:36:27.370Z,0
2017-08-16T03:37:27.388Z,0
2017-08-16T03:38:27.097Z,0
2017-08-16T03:39:27.384Z,0
2017-08-16T03:40:27.077Z,0
2017-08-16T03:41:27.377Z,0
2017-08-16T03:42:27.392Z,0
2017-08-16T03:43:27.381Z,0
2017-08-16T03:44:27.396Z,0
2017-08-16T03:45:27.086Z,0
2017-08-16T03:46:28.406Z,0
2017-08-16T03:47:27.415Z,0
2017-08-16T03:48:27.096Z,0
2017-08-16T03:49:27.099Z,0
2017-08-16T03:50:27.400Z,0
2017-08-16T03:51:27.425Z,0
2017-08-16T03:52:27.413Z,0
2017-08-16T03:53:27.117Z,0
2017-08-16T03:54:27.424Z,0
2017-08-16T03:55:27.117Z,0
2017-08-16T03:56:27.136Z,0
2017-08-16T03:57:27.433Z,0
2017-08-16T03:58:27.124Z,0
2017-08-16T03:59:27.125Z,0
2017-08-16T04:00:27.137Z,0
2017-08-16T04:01:27.134Z,0
2017-08-16T04:02:27.461Z,0
2017-08-16T04:03:27.447Z,0
2017-08-16T04:04:27.448Z,0
2017-08-16T04:05:27.141Z,0
2017-08-16T04:06:27.448Z,0
2017-08-16T04:07:27.455Z,0
2017-08-16T04:08:27.485Z,0
2017-08-16T04:09:27.159Z,0
2017-08-16T04:10:27.463Z,0
2017-08-16T04:11:27.461Z,0
2017-08-16T04:12:26.865Z,0
2017-08-16T04:13:27.469Z,0
2017-08-16T04:14:27.469Z,0
2017-08-16T04:15:27.470Z,0
2017-08-16T04:16:28.218Z,0
2017-08-16T04:17:26.871Z,0
2017-08-16T04:18:27.474Z,0
2017-08-16T04:19:27.175Z,0
2017-08-16T04:20:27.493Z,0
2017-08-16T04:21:27.514Z,0
2017-08-16T04:22:26.906Z,0
2017-08-16T04:23:27.188Z,5
2017-08-16T04:24:27.191Z,5
2017-08-16T04:25:27.200Z,5
2017-08-16T04:26:27.492Z,5
2017-08-16T04:27:27.509Z,5
2017-08-16T04:28:27.500Z,5
2017-08-16T04:29:27.221Z,5
2017-08-16T04:30:27.518Z,5
2017-08-16T04:31:26.908Z,5
2017-08-16T04:32:27.520Z,5
2017-08-16T04:33:27.523Z,5
2017-08-16T04:34:27.528Z,10
2017-08-16T04:35:27.535Z,10
2017-08-16T04:36:27.538Z,10
2017-08-16T04:37:27.738Z,10
2017-08-16T04:38:27.227Z,15
2017-08-16T04:39:27.536Z,15
2017-08-16T04:40:27.234Z,15
2017-08-16T04:41:27.254Z,15
2017-08-16T04:42:27.234Z,20
2017-08-16T04:43:27.541Z,20
2017-08-16T04:44:27.546Z,20
2017-08-16T04:45:27.559Z,25
2017-08-16T04:46:27.550Z,25
2017-08-16T04:47:29.610Z,25
2017-08-16T04:48:27.259Z,25
2017-08-16T04:49:27.261Z,25
2017-08-16T04:50:27.268Z,25
2017-08-16T04:51:27.588Z,30
2017-08-16T04:52:26.953Z,30
2017-08-16T04:53:27.287Z,30
2017-08-16T04:54:27.276Z,30
2017-08-16T04:55:27.279Z,30
2017-08-16T04:56:27.580Z,30
2017-08-16T04:57:28.386Z,30
2017-08-16T04:58:27.592Z,30
2017-08-16T04:59:27.592Z,30
2017-08-16T05:00:27.290Z,30
2017-08-16T05:01:27.590Z,35
2017-08-16T05:02:27.598Z,35
2017-08-16T05:03:27.294Z,35
2017-08-16T05:04:27.597Z,35
2017-08-16T05:05:27.300Z,35
2017-08-16T05:06:27.604Z,35
2017-08-16T05:07:27.612Z,35
2017-08-16T05:08:27.605Z,35
2017-08-16T05:09:27.307Z,35
2017-08-16T05:10:27.626Z,35
2017-08-16T05:11:27.335Z,40
2017-08-16T05:12:27.614Z,40
2017-08-16T05:13:27.619Z,45
2017-08-16T05:14:27.621Z,45
2017-08-16T05:15:27.632Z,45
2017-08-16T05:16:27.331Z,50
2017-08-16T05:17:27.883Z,50
2017-08-16T05:18:27.036Z,50
2017-08-16T05:19:27.639Z,55
2017-08-16T05:20:27.343Z,55
2017-08-16T05:21:27.638Z,60
2017-08-16T05:22:27.642Z,60
2017-08-16T05:23:27.343Z,60
2017-08-16T05:24:27.674Z,60
2017-08-16T05:25:27.361Z,60
2017-08-16T05:26:27.661Z,65
2017-08-16T05:27:27.663Z,65
2017-08-16T05:28:27.374Z,65
2017-08-16T05:29:27.359Z,70
2017-08-16T05:30:27.376Z,70
2017-08-16T05:31:27.680Z,75
2017-08-16T05:32:27.695Z,75
2017-08-16T05:33:27.679Z,80
2017-08-16T05:34:27.683Z,80
2017-08-16T05:35:27.380Z,85
2017-08-16T05:36:27.385Z,90
2017-08-16T05:37:27.385Z,95
2017-08-16T05:38:27.692Z,95
2017-08-16T05:39:27.406Z,100
2017-08-16T05:40:27.694Z,100
2017-08-16T05:41:27.409Z,105
2017-08-16T05:42:27.396Z,110
2017-08-16T05:43:27.700Z,115
2017-08-16T05:44:27.698Z,125
2017-08-16T05:45:27.419Z,145
2017-08-16T05:46:27.424Z,145
2017-08-16T05:47:27.678Z,135
2017-08-16T05:48:27.717Z,140
2017-08-16T05:49:27.725Z,160
2017-08-16T05:50:27.436Z,165
2017-08-16T05:51:27.726Z,170
2017-08-16T05:52:27.146Z,165
2017-08-16T05:53:27.745Z,165
2017-08-16T05:54:27.442Z,150
2017-08-16T05:55:27.747Z,145
2017-08-16T05:56:27.747Z,145
2017-08-16T05:57:27.759Z,145
2017-08-16T05:58:27.452Z,150
2017-08-16T05:59:27.457Z,145
2017-08-16T06:00:27.487Z,145
2017-08-16T06:01:27.767Z,145
2017-08-16T06:02:27.487Z,140
2017-08-16T06:03:27.774Z,140
2017-08-16T06:04:27.486Z,140
2017-08-16T06:05:27.489Z,135
2017-08-16T06:06:27.786Z,130
2017-08-16T06:07:27.790Z,130
2017-08-16T06:08:27.794Z,130
2017-08-16T06:09:27.497Z,130
2017-08-16T06:10:27.798Z,130
2017-08-16T06:11:27.517Z,130
2017-08-16T06:12:27.809Z,130
2017-08-16T06:13:27.816Z,130
2017-08-16T06:14:27.825Z,130
2017-08-16T06:15:27.832Z,135
2017-08-16T06:16:27.828Z,135
2017-08-16T06:17:27.534Z,135
2017-08-16T06:18:28.301Z,135
2017-08-16T06:19:27.857Z,135
2017-08-16T06:20:27.858Z,145
2017-08-16T06:21:27.564Z,150
2017-08-16T06:22:27.864Z,155
2017-08-16T06:23:27.858Z,160
2017-08-16T06:24:27.858Z,160
2017-08-16T06:25:27.861Z,155
2017-08-16T06:26:27.570Z,155
2017-08-16T06:27:27.577Z,150
2017-08-16T06:28:27.588Z,150
2017-08-16T06:29:27.880Z,145
2017-08-16T06:30:27.905Z,145
2017-08-16T06:31:27.601Z,140
2017-08-16T06:32:27.906Z,140
2017-08-16T06:33:29.096Z,145
2017-08-16T06:34:27.905Z,150
2017-08-16T06:35:27.908Z,150
2017-08-16T06:36:27.925Z,155
2017-08-16T06:37:27.926Z,160
2017-08-16T06:38:27.625Z,170
2017-08-16T06:39:27.925Z,180
2017-08-16T06:40:27.925Z,195
2017-08-16T06:41:27.939Z,200
2017-08-16T06:42:27.942Z,205
2017-08-16T06:43:27.378Z,205
2017-08-16T06:44:27.642Z,210
2017-08-16T06:45:27.954Z,210
2017-08-16T06:46:27.655Z,210
2017-08-16T06:47:27.670Z,210
2017-08-16T06:48:30.260Z,215
2017-08-16T06:49:27.959Z,225
2017-08-16T06:50:27.967Z,260
2017-08-16T06:51:27.365Z,210
2017-08-16T06:52:27.971Z,205
2017-08-16T06:53:27.979Z,195
2017-08-16T06:54:27.997Z,250
2017-08-16T06:55:27.996Z,290
2017-08-16T06:56:27.703Z,165
2017-08-16T06:57:28.004Z,165
2017-08-16T06:58:27.701Z,170
2017-08-16T06:59:27.711Z,185
2017-08-16T07:00:27.739Z,345
2017-08-16T07:01:27.722Z,380
2017-08-16T07:02:27.720Z,315
2017-08-16T07:03:27.753Z,180
2017-08-16T07:04:27.727Z,185
2017-08-16T07:05:28.035Z,255
2017-08-16T07:06:28.038Z,170
2017-08-16T07:07:27.747Z,170
2017-08-16T07:08:28.059Z,160
2017-08-16T07:09:27.754Z,155
2017-08-16T07:10:28.061Z,160
2017-08-16T07:11:28.067Z,160
2017-08-16T07:12:27.769Z,175
2017-08-16T07:13:27.784Z,285
2017-08-16T07:14:28.084Z,385
2017-08-16T07:15:27.781Z,335
2017-08-16T07:16:27.786Z,285
2017-08-16T07:17:27.799Z,360
2017-08-16T07:18:28.116Z,385
2017-08-16T07:19:28.614Z,380
2017-08-16T07:20:27.816Z,380
2017-08-16T07:21:28.123Z,360
2017-08-16T07:22:28.129Z,380
2017-08-16T07:23:28.136Z,375
2017-08-16T07:24:28.150Z,380
2017-08-16T07:25:27.840Z,380
2017-08-16T07:26:28.148Z,380
2017-08-16T07:27:27.890Z,385
2017-08-16T07:28:27.875Z,400
2017-08-16T07:29:27.894Z,405
2017-08-16T07:30:28.185Z,425
2017-08-16T07:31:27.287Z,420
2017-08-16T07:32:27.593Z,395
2017-08-16T07:33:27.920Z,325
2017-08-16T07:34:28.207Z,340
2017-08-16T07:35:28.237Z,335
2017-08-16T07:36:27.650Z,385
2017-08-16T07:37:28.234Z,365
2017-08-16T07:38:28.264Z,380
2017-08-16T07:39:28.251Z,305
2017-08-16T07:40:28.272Z,325
2017-08-16T07:41:28.280Z,290
2017-08-16T07:42:27.994Z,385
2017-08-16T07:43:28.289Z,365
2017-08-16T07:44:27.695Z,290
2017-08-16T07:45:27.705Z,245
2017-08-16T07:46:28.019Z,230
2017-08-16T07:47:27.728Z,225
2017-08-16T07:48:28.020Z,220
2017-08-16T07:49:32.740Z,245
2017-08-16T07:50:28.039Z,345
2017-08-16T07:51:27.453Z,375
2017-08-16T07:52:28.064Z,380
2017-08-16T07:53:28.070Z,370
2017-08-16T07:54:28.359Z,370
2017-08-16T07:55:28.070Z,340
2017-08-16T07:56:28.373Z,325
2017-08-16T07:57:28.397Z,320
2017-08-16T07:58:28.110Z,315
2017-08-16T07:59:28.124Z,405
2017-08-16T08:00:28.115Z,415
2017-08-16T08:01:28.425Z,370
2017-08-16T08:02:28.434Z,370
2017-08-16T08:03:28.435Z,330
2017-08-16T08:04:28.434Z,330
2017-08-16T08:05:28.145Z,335
2017-08-16T08:06:28.453Z,315
2017-08-16T08:07:27.858Z,290
2017-08-16T08:08:27.857Z,300
2017-08-16T08:09:28.188Z,310
2017-08-16T08:10:28.209Z,320
2017-08-16T08:11:28.504Z,300
2017-08-16T08:12:28.498Z,350
2017-08-16T08:13:28.529Z,395
2017-08-16T08:14:28.509Z,415
2017-08-16T08:15:28.216Z,435
2017-08-16T08:16:28.546Z,430
2017-08-16T08:17:28.243Z,355
2017-08-16T08:18:27.936Z,325
2017-08-16T08:19:31.451Z,330
2017-08-16T08:20:28.549Z,330
2017-08-16T08:21:28.260Z,395
2017-08-16T08:22:27.372Z,485
2017-08-16T08:23:28.272Z,475
2017-08-16T08:24:28.600Z,365
2017-08-16T08:25:28.597Z,350
2017-08-16T08:26:28.599Z,370
2017-08-16T08:27:28.597Z,350
2017-08-16T08:28:28.020Z,345
2017-08-16T08:29:28.619Z,405
2017-08-16T08:30:28.316Z,395
2017-08-16T08:31:28.638Z,400
2017-08-16T08:32:28.031Z,375
2017-08-16T08:33:28.055Z,345
2017-08-16T08:34:28.354Z,350
2017-08-16T08:35:28.853Z,360
2017-08-16T08:36:28.701Z,340
2017-08-16T08:37:28.084Z,355
2017-08-16T08:38:28.314Z,360
2017-08-16T08:39:28.643Z,360
2017-08-16T08:40:28.785Z,355
2017-08-16T08:41:28.274Z,360
2017-08-16T08:42:28.887Z,370
2017-08-16T08:43:28.408Z,370
2017-08-16T08:44:28.998Z,355
2017-08-16T08:45:30.638Z,355
2017-08-16T08:46:29.477Z,370
2017-08-16T08:47:29.507Z,360
2017-08-16T08:48:29.089Z,440
2017-08-16T08:49:29.545Z,475
2017-08-16T08:50:33.707Z,380
2017-08-16T08:51:29.605Z,395
2017-08-16T08:52:29.531Z,440
2017-08-16T08:53:29.283Z,355
2017-08-16T08:54:29.702Z,355
2017-08-16T08:55:31.161Z,335
2017-08-16T08:56:29.523Z,345
2017-08-16T08:57:29.429Z,335
2017-08-16T08:58:29.730Z,340
2017-08-16T08:59:28.675Z,350
2017-08-16T09:00:30.226Z,355
2017-08-16T09:01:29.502Z,360
2017-08-16T09:02:29.657Z,360
2017-08-16T09:03:28.753Z,365
2017-08-16T09:04:29.459Z,370
2017-08-16T09:05:30.223Z,395
2017-08-16T09:06:30.167Z,395
2017-08-16T09:07:29.792Z,380
2017-08-16T09:08:29.543Z,360
2017-08-16T09:09:28.880Z,360
2017-08-16T09:10:28.592Z,360
2017-08-16T09:11:30.005Z,355
2017-08-16T09:12:28.657Z,350
2017-08-16T09:13:28.051Z,345
2017-08-16T09:14:28.047Z,330
2017-08-16T09:15:28.924Z,325
2017-08-16T09:16:28.359Z,325
2017-08-16T09:17:28.658Z,330
2017-08-16T09:18:28.945Z,320
2017-08-16T09:19:28.644Z,325
2017-08-16T09:20:28.949Z,335
2017-08-16T09:21:31.022Z,340
2017-08-16T09:22:28.979Z,345
2017-08-16T09:23:28.980Z,350
2017-08-16T09:24:28.683Z,355
2017-08-16T09:25:28.691Z,365
2017-08-16T09:26:28.682Z,365
2017-08-16T09:27:29.004Z,360
2017-08-16T09:28:28.790Z,355
2017-08-16T09:29:29.022Z,345
2017-08-16T09:30:29.020Z,350
2017-08-16T09:31:28.719Z,320
2017-08-16T09:32:29.032Z,315
2017-08-16T09:33:28.761Z,305
2017-08-16T09:34:28.453Z,300
2017-08-16T09:35:28.752Z,295
2017-08-16T09:36:28.814Z,300
2017-08-16T09:37:29.056Z,390
2017-08-16T09:38:29.062Z,350
2017-08-16T09:39:29.081Z,315
2017-08-16T09:40:28.475Z,355
2017-08-16T09:41:29.128Z,315
2017-08-16T09:42:29.087Z,310
2017-08-16T09:43:29.090Z,375
2017-08-16T09:44:28.809Z,330
2017-08-16T09:45:29.099Z,425
2017-08-16T09:46:29.126Z,340
2017-08-16T09:47:29.120Z,360
2017-08-16T09:48:28.565Z,430
2017-08-16T09:49:29.134Z,360
2017-08-16T09:50:28.845Z,425
2017-08-16T09:51:34.958Z,430
2017-08-16T09:52:29.156Z,440
2017-08-16T09:53:29.153Z,420
2017-08-16T09:54:29.169Z,410
2017-08-16T09:55:28.870Z,430
2017-08-16T09:56:28.886Z,415
2017-08-16T09:57:28.889Z,405
2017-08-16T09:58:29.191Z,405
2017-08-16T09:59:28.923Z,380
2017-08-16T10:00:29.198Z,395
2017-08-16T10:01:28.912Z,320
2017-08-16T10:02:28.306Z,310
2017-08-16T10:03:29.243Z,365
2017-08-16T10:04:29.244Z,390
2017-08-16T10:05:28.660Z,380
2017-08-16T10:06:28.934Z,305
2017-08-16T10:07:28.645Z,310
2017-08-16T10:08:31.062Z,345
2017-08-16T10:09:28.957Z,330
2017-08-16T10:10:29.276Z,365
2017-08-16T10:11:29.273Z,365
2017-08-16T10:12:29.283Z,370
2017-08-16T10:13:28.984Z,385
2017-08-16T10:14:28.999Z,395
2017-08-16T10:15:28.699Z,370
2017-08-16T10:16:29.299Z,380
2017-08-16T10:17:29.312Z,385
2017-08-16T10:18:29.308Z,380
2017-08-16T10:19:29.340Z,385
2017-08-16T10:20:29.337Z,345
2017-08-16T10:21:29.022Z,385
2017-08-16T10:22:30.942Z,380
2017-08-16T10:23:29.349Z,370
2017-08-16T10:24:29.044Z,350
2017-08-16T10:25:28.752Z,345
2017-08-16T10:26:29.054Z,295
2017-08-16T10:27:28.483Z,315
2017-08-16T10:28:29.072Z,315
2017-08-16T10:29:29.372Z,335
2017-08-16T10:30:29.399Z,340
2017-08-16T10:31:28.800Z,345
2017-08-16T10:32:29.414Z,345
2017-08-16T10:33:29.397Z,350
2017-08-16T10:34:29.102Z,350
2017-08-16T10:35:29.126Z,360
2017-08-16T10:36:28.836Z,360
2017-08-16T10:37:29.483Z,370
2017-08-16T10:38:29.130Z,375
2017-08-16T10:39:29.441Z,355
2017-08-16T10:40:29.139Z,375
2017-08-16T10:41:29.164Z,365
2017-08-16T10:42:29.461Z,380
2017-08-16T10:43:29.459Z,380
2017-08-16T10:44:29.477Z,385
2017-08-16T10:45:29.185Z,385
2017-08-16T10:46:29.222Z,410
2017-08-16T10:47:29.486Z,385
2017-08-16T10:48:29.203Z,385
2017-08-16T10:49:29.495Z,365
2017-08-16T10:50:29.516Z,355
2017-08-16T10:51:28.912Z,355
2017-08-16T10:52:31.586Z,355
2017-08-16T10:53:29.555Z,365
2017-08-16T10:54:29.234Z,380
2017-08-16T10:55:29.537Z,385
2017-08-16T10:56:29.247Z,385
2017-08-16T10:57:29.292Z,390
2017-08-16T10:58:29.292Z,390
2017-08-16T10:59:29.570Z,385
2017-08-16T11:00:29.269Z,385
2017-08-16T11:01:29.291Z,380
2017-08-16T11:02:29.292Z,380
2017-08-16T11:03:29.302Z,375
2017-08-16T11:04:29.004Z,375
2017-08-16T11:05:29.301Z,375
2017-08-16T11:06:29.632Z,375
2017-08-16T11:07:29.633Z,375
2017-08-16T11:08:28.756Z,375
2017-08-16T11:09:29.329Z,370
2017-08-16T11:10:29.331Z,370
2017-08-16T11:11:29.648Z,365
2017-08-16T11:12:29.357Z,365
2017-08-16T11:13:29.359Z,370
2017-08-16T11:14:29.373Z,360
2017-08-16T11:15:29.675Z,380
2017-08-16T11:16:29.677Z,385
2017-08-16T11:17:29.689Z,390
2017-08-16T11:18:29.385Z,425
2017-08-16T11:19:29.692Z,410
2017-08-16T11:20:29.700Z,425
2017-08-16T11:21:29.416Z,445
2017-08-16T11:22:30.180Z,440
2017-08-16T11:23:28.976Z,400
2017-08-16T11:24:29.439Z,370
2017-08-16T11:25:29.171Z,355
2017-08-16T11:26:29.751Z,345
2017-08-16T11:27:29.166Z,330
2017-08-16T11:28:29.763Z,315
2017-08-16T11:29:29.484Z,310
2017-08-16T11:30:29.188Z,295
2017-08-16T11:31:29.793Z,290
2017-08-16T11:32:29.514Z,285
2017-08-16T11:33:29.504Z,275
2017-08-16T11:34:29.211Z,270
2017-08-16T11:35:29.538Z,275
2017-08-16T11:36:29.803Z,280
2017-08-16T11:37:29.888Z,305
2017-08-16T11:38:29.835Z,335
2017-08-16T11:39:29.580Z,330
2017-08-16T11:40:29.899Z,330
2017-08-16T11:41:29.875Z,335
2017-08-16T11:42:29.576Z,335
2017-08-16T11:43:29.894Z,335
2017-08-16T11:44:29.892Z,340
2017-08-16T11:45:29.095Z,345
2017-08-16T11:46:29.895Z,340
2017-08-16T11:47:29.617Z,340
2017-08-16T11:48:29.608Z,330
2017-08-16T11:49:29.601Z,325
2017-08-16T11:50:29.040Z,315
2017-08-16T11:51:29.639Z,315
2017-08-16T11:52:29.943Z,310
2017-08-16T11:53:29.850Z,300
2017-08-16T11:54:29.664Z,280
2017-08-16T11:55:29.721Z,275
2017-08-16T11:56:29.704Z,270
2017-08-16T11:57:29.640Z,270
2017-08-16T11:58:29.966Z,270
2017-08-16T11:59:29.697Z,260
2017-08-16T12:00:29.369Z,260
2017-08-16T12:01:29.367Z,245
2017-08-16T12:02:29.965Z,240
2017-08-16T12:03:29.682Z,235
2017-08-16T12:04:29.704Z,235
2017-08-16T12:05:29.995Z,200
2017-08-16T12:06:29.386Z,205
2017-08-16T12:07:29.693Z,230
2017-08-16T12:08:33.162Z,210
2017-08-16T12:09:29.109Z,195
2017-08-16T12:10:29.480Z,195
2017-08-16T12:11:30.024Z,190
2017-08-16T12:12:30.049Z,195
2017-08-16T12:13:30.044Z,195
2017-08-16T12:14:30.040Z,200
2017-08-16T12:15:29.448Z,210
2017-08-16T12:16:29.763Z,220
2017-08-16T12:17:29.156Z,215
2017-08-16T12:18:30.060Z,215
2017-08-16T12:19:30.064Z,210
2017-08-16T12:20:30.080Z,210
2017-08-16T12:21:30.083Z,210
2017-08-16T12:22:29.785Z,265
2017-08-16T12:23:29.704Z,270
2017-08-16T12:24:29.806Z,285
2017-08-16T12:25:29.816Z,290
2017-08-16T12:26:30.114Z,300
2017-08-16T12:27:29.813Z,300
2017-08-16T12:28:30.030Z,285
2017-08-16T12:29:29.838Z,295
2017-08-16T12:30:29.849Z,300
2017-08-16T12:31:29.832Z,295
2017-08-16T12:32:30.151Z,285
2017-08-16T12:33:29.675Z,280
2017-08-16T12:34:29.850Z,250
2017-08-16T12:35:30.233Z,260
2017-08-16T12:36:29.751Z,260
2017-08-16T12:37:30.211Z,255
2017-08-16T12:38:30.303Z,260
2017-08-16T12:39:30.002Z,240
2017-08-16T12:40:29.359Z,260
2017-08-16T12:41:30.216Z,260
2017-08-16T12:42:29.618Z,250
2017-08-16T12:43:29.909Z,220
2017-08-16T12:44:29.618Z,240
2017-08-16T12:45:30.216Z,240
2017-08-16T12:46:29.943Z,215
2017-08-16T12:47:30.226Z,225
2017-08-16T12:48:29.332Z,220
2017-08-16T12:49:29.628Z,230
2017-08-16T12:50:30.260Z,220
2017-08-16T12:51:30.244Z,230
2017-08-16T12:52:29.703Z,250
2017-08-16T12:53:31.238Z,255
2017-08-16T12:54:29.785Z,255
2017-08-16T12:55:29.970Z,260
2017-08-16T12:56:30.502Z,265
2017-08-16T12:57:30.392Z,265
2017-08-16T12:58:29.987Z,265
2017-08-16T12:59:29.681Z,265
2017-08-16T13:00:30.303Z,265
2017-08-16T13:01:30.008Z,270
2017-08-16T13:02:29.698Z,260
2017-08-16T13:03:30.052Z,260
2017-08-16T13:04:30.016Z,265
2017-08-16T13:05:29.713Z,240
2017-08-16T13:06:30.163Z,265
2017-08-16T13:07:30.135Z,260
2017-08-16T13:08:32.538Z,265
2017-08-16T13:09:30.046Z,260
2017-08-16T13:10:30.354Z,260
2017-08-16T13:11:29.533Z,260
2017-08-16T13:12:30.374Z,260
2017-08-16T13:13:30.374Z,260
2017-08-16T13:14:30.071Z,255
2017-08-16T13:15:32.354Z,260
2017-08-16T13:16:31.800Z,260
2017-08-16T13:17:30.084Z,265
2017-08-16T13:18:30.151Z,260
2017-08-16T13:19:29.564Z,265
2017-08-16T13:20:30.149Z,275
2017-08-16T13:21:30.455Z,275
2017-08-16T13:22:29.820Z,265
2017-08-16T13:23:30.119Z,265
2017-08-16T13:24:35.028Z,260
2017-08-16T13:25:30.350Z,285
2017-08-16T13:26:30.266Z,285
2017-08-16T13:27:30.149Z,285
2017-08-16T13:28:30.202Z,305
2017-08-16T13:29:30.212Z,305
2017-08-16T13:30:30.597Z,300
2017-08-16T13:31:30.482Z,300
2017-08-16T13:32:30.554Z,285
2017-08-16T13:33:29.987Z,270
2017-08-16T13:34:30.496Z,260
2017-08-16T13:35:29.600Z,270
2017-08-16T13:36:30.186Z,270
2017-08-16T13:37:30.499Z,265
2017-08-16T13:38:30.225Z,265
2017-08-16T13:39:30.526Z,270
2017-08-16T13:40:29.911Z,275
2017-08-16T13:41:30.249Z,265
2017-08-16T13:42:30.555Z,245
2017-08-16T13:43:30.639Z,265
2017-08-16T13:44:30.561Z,255
2017-08-16T13:45:30.547Z,270
2017-08-16T13:46:30.262Z,275
2017-08-16T13:47:29.979Z,280
2017-08-16T13:48:30.285Z,280
2017-08-16T13:49:29.785Z,255
2017-08-16T13:50:30.001Z,260
2017-08-16T13:51:30.290Z,270
2017-08-16T13:52:30.296Z,280
2017-08-16T13:53:30.611Z,275
2017-08-16T13:54:32.155Z,275
2017-08-16T13:55:30.976Z,275
2017-08-16T13:56:30.355Z,280
2017-08-16T13:57:30.629Z,280
2017-08-16T13:58:30.323Z,280
2017-08-16T13:59:30.337Z,280
2017-08-16T14:00:31.581Z,280
2017-08-16T14:01:31.899Z,285
2017-08-16T14:02:30.648Z,290
2017-08-16T14:03:32.068Z,295
2017-08-16T14:04:31.800Z,305
2017-08-16T14:05:31.878Z,300
2017-08-16T14:06:30.074Z,300
2017-08-16T14:07:30.083Z,300